Main page
METAR-TAF:

METAR-TAF

Airports :

Marianna Municipal Airport

Marianna, Florida, United States

latitude: 30-50-12N, longitude: 085-11-01W, elevation: 112 ft

Current weather observation

The report was made 25 minutes ago, at 09:02 UTC
Wind 8 mph from the South
Temperature 70°F
Humidity 94%
Pressure 30.01 in. Hg
Visibility: 7 miles
Broken clouds at a height of 400 ft
Overcast at a height of 1300 ft

METAR: KMAI 010902Z AUTO 19007KT 7SM BKN004 OVC013 21/20 A3001 RMK AO2 CIG 003V009 T02060200

Time: 03:27 (09:27 UTC)


TAF: missing

Weather observations and forecasts of more than 4000 airports (METAR and TAF reports).

The available stations are represented by yellow and red dots on the map.

Hover mouse over dot to see the name of the station.

Then click to see weather observations and forecasts.

To change the map : click on the green buttons with a black cross to zoom in, on the green button with a dash to zoom out, or on the green arrows for adjacent maps.


METAR-TAF: